sensor_id;sensor_type;location;lat;lon;timestamp;P1;durP1;ratioP1;P2;durP2;ratioP2
73120;SDS011;61307;49.628;-1.624;2023-08-12T00:22:09;7.53;;;1.90;;
73120;SDS011;61307;49.628;-1.624;2023-08-12T00:24:38;9.07;;;2.38;;
73120;SDS011;61307;49.628;-1.624;2023-08-12T00:27:05;5.60;;;2.17;;
73120;SDS011;61307;49.628;-1.624;2023-08-12T00:49:10;4.18;;;2.05;;
73120;SDS011;61307;49.628;-1.624;2023-08-12T00:52:11;8.43;;;2.83;;
73120;SDS011;61307;49.628;-1.624;2023-08-12T01:04:59;5.95;;;1.85;;
73120;SDS011;61307;49.628;-1.624;2023-08-12T01:14:14;4.45;;;2.00;;
73120;SDS011;61307;49.628;-1.624;2023-08-12T02:19:23;5.72;;;2.00;;
73120;SDS011;61307;49.628;-1.624;2023-08-12T02:25:54;5.47;;;2.20;;
73120;SDS011;61307;49.628;-1.624;2023-08-12T02:32:33;7.38;;;2.10;;
73120;SDS011;61307;49.628;-1.624;2023-08-12T03:15:44;6.85;;;2.60;;
73120;SDS011;61307;49.628;-1.624;2023-08-12T03:18:14;5.75;;;2.33;;
73120;SDS011;61307;49.628;-1.624;2023-08-12T03:37:10;6.13;;;2.33;;
73120;SDS011;61307;49.628;-1.624;2023-08-12T03:49:51;5.85;;;2.47;;
73120;SDS011;61307;49.628;-1.624;2023-08-12T03:52:28;5.25;;;2.47;;
73120;SDS011;61307;49.628;-1.624;2023-08-12T03:55:03;10.75;;;2.92;;
73120;SDS011;61307;49.628;-1.624;2023-08-12T04:04:36;7.97;;;2.83;;
73120;SDS011;61307;49.628;-1.624;2023-08-12T04:28:23;9.18;;;3.00;;
73120;SDS011;61307;49.628;-1.624;2023-08-12T04:42:38;11.00;;;3.28;;
73120;SDS011;61307;49.628;-1.624;2023-08-12T05:06:02;17.15;;;3.55;;
73120;SDS011;61307;49.628;-1.624;2023-08-12T05:18:59;12.63;;;3.30;;
73120;SDS011;61307;49.628;-1.624;2023-08-12T06:11:07;13.15;;;3.03;;
73120;SDS011;61307;49.628;-1.624;2023-08-12T06:15:41;16.00;;;3.47;;
73120;SDS011;61307;49.628;-1.624;2023-08-12T06:33:54;12.27;;;4.03;;
73120;SDS011;61307;49.628;-1.624;2023-08-12T06:36:22;13.25;;;3.20;;
73120;SDS011;61307;49.628;-1.624;2023-08-12T06:38:50;10.98;;;3.35;;
73120;SDS011;61307;49.628;-1.624;2023-08-12T06:41:17;15.15;;;3.47;;
73120;SDS011;61307;49.628;-1.624;2023-08-12T06:57:58;15.90;;;3.72;;
73120;SDS011;61307;49.628;-1.624;2023-08-12T07:04:01;16.15;;;3.50;;
73120;SDS011;61307;49.628;-1.624;2023-08-12T07:13:39;12.02;;;3.40;;
73120;SDS011;61307;49.628;-1.624;2023-08-12T07:16:08;14.80;;;3.55;;
73120;SDS011;61307;49.628;-1.624;2023-08-12T08:28:21;26.83;;;4.20;;
73120;SDS011;61307;49.628;-1.624;2023-08-12T08:37:09;17.20;;;3.70;;
73120;SDS011;61307;49.628;-1.624;2023-08-12T09:02:24;15.90;;;4.00;;
73120;SDS011;61307;49.628;-1.624;2023-08-12T09:04:52;17.65;;;3.80;;
73120;SDS011;61307;49.628;-1.624;2023-08-12T09:07:20;19.73;;;3.90;;
73120;SDS011;61307;49.628;-1.624;2023-08-12T09:09:48;15.10;;;3.38;;
73120;SDS011;61307;49.628;-1.624;2023-08-12T09:29:30;18.40;;;4.38;;
73120;SDS011;61307;49.628;-1.624;2023-08-12T09:39:54;17.50;;;4.80;;
73120;SDS011;61307;49.628;-1.624;2023-08-12T10:16:07;22.20;;;4.05;;
73120;SDS011;61307;49.628;-1.624;2023-08-12T10:18:38;21.80;;;5.30;;
73120;SDS011;61307;49.628;-1.624;2023-08-12T10:21:27;25.10;;;4.45;;
73120;SDS011;61307;49.628;-1.624;2023-08-12T10:23:57;22.13;;;4.10;;
73120;SDS011;61307;49.628;-1.624;2023-08-12T10:36:02;18.65;;;3.60;;
73120;SDS011;61307;49.628;-1.624;2023-08-12T10:55:47;20.83;;;4.00;;
73120;SDS011;61307;49.628;-1.624;2023-08-12T11:01:54;15.30;;;3.83;;
73120;SDS011;61307;49.628;-1.624;2023-08-12T11:08:09;22.98;;;4.72;;
73120;SDS011;61307;49.628;-1.624;2023-08-12T11:10:40;17.85;;;3.83;;
73120;SDS011;61307;49.628;-1.624;2023-08-12T11:13:22;20.67;;;3.95;;
73120;SDS011;61307;49.628;-1.624;2023-08-12T11:16:05;19.60;;;3.53;;
73120;SDS011;61307;49.628;-1.624;2023-08-12T11:18:33;21.70;;;4.55;;
73120;SDS011;61307;49.628;-1.624;2023-08-12T11:21:01;25.92;;;4.18;;
73120;SDS011;61307;49.628;-1.624;2023-08-12T11:23:28;19.70;;;4.35;;
73120;SDS011;61307;49.628;-1.624;2023-08-12T11:25:56;15.98;;;3.90;;
73120;SDS011;61307;49.628;-1.624;2023-08-12T11:28:25;19.25;;;3.70;;
73120;SDS011;61307;49.628;-1.624;2023-08-12T11:30:53;19.08;;;4.13;;
73120;SDS011;61307;49.628;-1.624;2023-08-12T11:33:21;18.35;;;4.15;;
73120;SDS011;61307;49.628;-1.624;2023-08-12T11:35:49;23.27;;;4.13;;
73120;SDS011;61307;49.628;-1.624;2023-08-12T11:38:16;16.33;;;3.72;;
73120;SDS011;61307;49.628;-1.624;2023-08-12T11:40:44;18.00;;;3.70;;
73120;SDS011;61307;49.628;-1.624;2023-08-12T11:43:11;13.90;;;4.07;;
73120;SDS011;61307;49.628;-1.624;2023-08-12T11:45:41;21.65;;;3.55;;
73120;SDS011;61307;49.628;-1.624;2023-08-12T11:48:09;17.92;;;3.50;;
73120;SDS011;61307;49.628;-1.624;2023-08-12T11:50:36;14.32;;;3.47;;
73120;SDS011;61307;49.628;-1.624;2023-08-12T11:53:03;15.98;;;3.70;;
73120;SDS011;61307;49.628;-1.624;2023-08-12T11:55:30;16.35;;;3.80;;
73120;SDS011;61307;49.628;-1.624;2023-08-12T11:57:57;12.77;;;3.70;;
73120;SDS011;61307;49.628;-1.624;2023-08-12T12:00:24;20.00;;;4.13;;
73120;SDS011;61307;49.628;-1.624;2023-08-12T12:02:53;15.75;;;3.20;;
73120;SDS011;61307;49.628;-1.624;2023-08-12T12:05:22;18.10;;;4.03;;
73120;SDS011;61307;49.628;-1.624;2023-08-12T12:07:50;20.70;;;4.60;;
73120;SDS011;61307;49.628;-1.624;2023-08-12T12:10:18;16.70;;;4.00;;
73120;SDS011;61307;49.628;-1.624;2023-08-12T12:12:45;19.77;;;3.83;;
73120;SDS011;61307;49.628;-1.624;2023-08-12T12:15:12;22.27;;;3.72;;
73120;SDS011;61307;49.628;-1.624;2023-08-12T12:17:40;17.80;;;4.53;;
73120;SDS011;61307;49.628;-1.624;2023-08-12T12:20:09;19.88;;;3.58;;
73120;SDS011;61307;49.628;-1.624;2023-08-12T12:22:37;18.80;;;3.70;;
73120;SDS011;61307;49.628;-1.624;2023-08-12T12:25:08;20.90;;;3.85;;
73120;SDS011;61307;49.628;-1.624;2023-08-12T12:27:36;17.83;;;4.88;;
73120;SDS011;61307;49.628;-1.624;2023-08-12T12:30:04;19.20;;;4.45;;
73120;SDS011;61307;49.628;-1.624;2023-08-12T12:32:32;15.75;;;3.45;;
73120;SDS011;61307;49.628;-1.624;2023-08-12T12:34:59;16.92;;;3.47;;
73120;SDS011;61307;49.628;-1.624;2023-08-12T12:37:38;15.25;;;3.78;;
73120;SDS011;61307;49.628;-1.624;2023-08-12T12:40:05;26.48;;;4.32;;
73120;SDS011;61307;49.628;-1.624;2023-08-12T12:42:33;15.82;;;3.50;;
73120;SDS011;61307;49.628;-1.624;2023-08-12T12:45:00;15.23;;;3.63;;
73120;SDS011;61307;49.628;-1.624;2023-08-12T12:47:27;17.17;;;3.83;;
73120;SDS011;61307;49.628;-1.624;2023-08-12T12:49:54;19.25;;;3.67;;
73120;SDS011;61307;49.628;-1.624;2023-08-12T12:52:21;14.38;;;4.03;;
73120;SDS011;61307;49.628;-1.624;2023-08-12T13:22:35;13.70;;;3.08;;
73120;SDS011;61307;49.628;-1.624;2023-08-12T13:25:08;16.05;;;3.63;;
73120;SDS011;61307;49.628;-1.624;2023-08-12T13:31:14;20.83;;;4.38;;
73120;SDS011;61307;49.628;-1.624;2023-08-12T14:14:48;12.70;;;3.33;;
73120;SDS011;61307;49.628;-1.624;2023-08-12T14:17:15;16.23;;;2.95;;
73120;SDS011;61307;49.628;-1.624;2023-08-12T14:19:47;16.80;;;3.42;;
73120;SDS011;61307;49.628;-1.624;2023-08-12T14:22:16;16.30;;;4.07;;
73120;SDS011;61307;49.628;-1.624;2023-08-12T14:24:44;17.70;;;3.80;;
73120;SDS011;61307;49.628;-1.624;2023-08-12T14:30:46;15.02;;;3.35;;
73120;SDS011;61307;49.628;-1.624;2023-08-12T14:33:13;14.68;;;3.00;;
73120;SDS011;61307;49.628;-1.624;2023-08-12T14:35:40;16.58;;;3.58;;
73120;SDS011;61307;49.628;-1.624;2023-08-12T17:01:44;15.68;;;3.25;;
73120;SDS011;61307;49.628;-1.624;2023-08-12T17:17:34;16.70;;;3.33;;
73120;SDS011;61307;49.628;-1.624;2023-08-12T17:25:55;17.52;;;3.40;;
73120;SDS011;61307;49.628;-1.624;2023-08-12T17:28:23;15.23;;;3.00;;
73120;SDS011;61307;49.628;-1.624;2023-08-12T17:33:45;18.20;;;3.30;;
73120;SDS011;61307;49.628;-1.624;2023-08-12T17:36:12;17.83;;;3.67;;
73120;SDS011;61307;49.628;-1.624;2023-08-12T17:39:12;20.80;;;3.88;;
73120;SDS011;61307;49.628;-1.624;2023-08-12T17:41:39;17.88;;;4.05;;
73120;SDS011;61307;49.628;-1.624;2023-08-12T17:44:06;17.05;;;3.38;;
73120;SDS011;61307;49.628;-1.624;2023-08-12T18:32:41;16.60;;;2.85;;
73120;SDS011;61307;49.628;-1.624;2023-08-12T18:35:08;14.32;;;3.22;;
73120;SDS011;61307;49.628;-1.624;2023-08-12T18:37:36;14.60;;;2.75;;
73120;SDS011;61307;49.628;-1.624;2023-08-12T18:40:03;15.15;;;2.72;;
73120;SDS011;61307;49.628;-1.624;2023-08-12T18:42:32;14.55;;;2.90;;
73120;SDS011;61307;49.628;-1.624;2023-08-12T18:44:59;14.10;;;2.90;;
73120;SDS011;61307;49.628;-1.624;2023-08-12T18:47:26;11.73;;;2.72;;
73120;SDS011;61307;49.628;-1.624;2023-08-12T18:49:54;13.50;;;2.53;;
73120;SDS011;61307;49.628;-1.624;2023-08-12T18:52:21;15.77;;;2.78;;
73120;SDS011;61307;49.628;-1.624;2023-08-12T18:54:48;8.32;;;2.50;;
73120;SDS011;61307;49.628;-1.624;2023-08-12T18:57:15;9.68;;;2.40;;
73120;SDS011;61307;49.628;-1.624;2023-08-12T18:59:41;10.70;;;2.53;;
73120;SDS011;61307;49.628;-1.624;2023-08-12T19:02:08;12.95;;;3.00;;
73120;SDS011;61307;49.628;-1.624;2023-08-12T19:04:35;10.70;;;2.83;;
73120;SDS011;61307;49.628;-1.624;2023-08-12T19:07:03;11.40;;;2.90;;
73120;SDS011;61307;49.628;-1.624;2023-08-12T19:09:30;14.70;;;2.90;;
73120;SDS011;61307;49.628;-1.624;2023-08-12T19:11:57;13.00;;;2.65;;
73120;SDS011;61307;49.628;-1.624;2023-08-12T19:14:24;13.13;;;2.38;;
73120;SDS011;61307;49.628;-1.624;2023-08-12T19:16:51;14.23;;;2.55;;
73120;SDS011;61307;49.628;-1.624;2023-08-12T19:19:18;12.25;;;3.47;;
73120;SDS011;61307;49.628;-1.624;2023-08-12T19:21:45;9.60;;;2.58;;
73120;SDS011;61307;49.628;-1.624;2023-08-12T19:24:14;10.57;;;2.67;;
73120;SDS011;61307;49.628;-1.624;2023-08-12T19:26:40;13.20;;;3.00;;
73120;SDS011;61307;49.628;-1.624;2023-08-12T19:29:07;16.02;;;2.92;;
73120;SDS011;61307;49.628;-1.624;2023-08-12T19:31:34;12.50;;;2.95;;
73120;SDS011;61307;49.628;-1.624;2023-08-12T19:34:01;10.32;;;2.50;;
73120;SDS011;61307;49.628;-1.624;2023-08-12T19:36:28;12.85;;;3.20;;
73120;SDS011;61307;49.628;-1.624;2023-08-12T19:38:55;15.68;;;3.33;;
73120;SDS011;61307;49.628;-1.624;2023-08-12T19:41:23;13.77;;;3.10;;
73120;SDS011;61307;49.628;-1.624;2023-08-12T19:43:50;6.47;;;2.10;;
73120;SDS011;61307;49.628;-1.624;2023-08-12T19:46:17;14.13;;;3.22;;
73120;SDS011;61307;49.628;-1.624;2023-08-12T19:48:44;13.68;;;2.55;;
73120;SDS011;61307;49.628;-1.624;2023-08-12T19:51:11;9.70;;;2.40;;
73120;SDS011;61307;49.628;-1.624;2023-08-12T19:53:38;15.02;;;2.67;;
73120;SDS011;61307;49.628;-1.624;2023-08-12T19:56:05;17.42;;;2.45;;
73120;SDS011;61307;49.628;-1.624;2023-08-12T19:58:33;14.43;;;2.65;;
73120;SDS011;61307;49.628;-1.624;2023-08-12T20:01:00;11.98;;;3.03;;
73120;SDS011;61307;49.628;-1.624;2023-08-12T20:03:27;13.55;;;3.22;;
73120;SDS011;61307;49.628;-1.624;2023-08-12T20:05:54;17.38;;;2.85;;
73120;SDS011;61307;49.628;-1.624;2023-08-12T20:08:22;11.65;;;2.55;;
73120;SDS011;61307;49.628;-1.624;2023-08-12T20:10:51;19.73;;;3.20;;
73120;SDS011;61307;49.628;-1.624;2023-08-12T20:13:18;11.00;;;2.53;;
73120;SDS011;61307;49.628;-1.624;2023-08-12T20:15:46;11.77;;;2.65;;
73120;SDS011;61307;49.628;-1.624;2023-08-12T20:18:16;10.90;;;2.72;;
73120;SDS011;61307;49.628;-1.624;2023-08-12T20:20:43;14.88;;;3.38;;
73120;SDS011;61307;49.628;-1.624;2023-08-12T20:23:13;10.57;;;2.30;;
73120;SDS011;61307;49.628;-1.624;2023-08-12T20:25:41;11.07;;;2.72;;
73120;SDS011;61307;49.628;-1.624;2023-08-12T20:28:08;13.05;;;2.72;;
73120;SDS011;61307;49.628;-1.624;2023-08-12T20:30:35;13.50;;;2.90;;
73120;SDS011;61307;49.628;-1.624;2023-08-12T20:33:03;12.88;;;2.97;;
73120;SDS011;61307;49.628;-1.624;2023-08-12T20:35:31;9.98;;;2.28;;
73120;SDS011;61307;49.628;-1.624;2023-08-12T20:37:58;12.98;;;2.92;;
73120;SDS011;61307;49.628;-1.624;2023-08-12T20:40:29;14.45;;;3.17;;
73120;SDS011;61307;49.628;-1.624;2023-08-12T20:42:55;11.45;;;2.47;;
73120;SDS011;61307;49.628;-1.624;2023-08-12T20:45:35;13.13;;;2.85;;
73120;SDS011;61307;49.628;-1.624;2023-08-12T20:58:35;9.48;;;2.67;;
73120;SDS011;61307;49.628;-1.624;2023-08-12T21:01:03;11.57;;;2.45;;
73120;SDS011;61307;49.628;-1.624;2023-08-12T21:24:39;14.05;;;2.83;;
73120;SDS011;61307;49.628;-1.624;2023-08-12T21:47:44;9.63;;;2.38;;
73120;SDS011;61307;49.628;-1.624;2023-08-12T22:36:13;12.10;;;2.38;;
73120;SDS011;61307;49.628;-1.624;2023-08-12T23:01:28;9.77;;;2.55;;
73120;SDS011;61307;49.628;-1.624;2023-08-12T23:04:09;8.55;;;1.92;;
73120;SDS011;61307;49.628;-1.624;2023-08-12T23:07:15;10.25;;;2.08;;
73120;SDS011;61307;49.628;-1.624;2023-08-12T23:13:22;7.38;;;2.17;;
73120;SDS011;61307;49.628;-1.624;2023-08-12T23:16:58;8.35;;;2.00;;
73120;SDS011;61307;49.628;-1.624;2023-08-12T23:19:12;8.77;;;1.83;;
73120;SDS011;61307;49.628;-1.624;2023-08-12T23:21:40;8.45;;;1.98;;
73120;SDS011;61307;49.628;-1.624;2023-08-12T23:51:56;9.25;;;1.98;;
73120;SDS011;61307;49.628;-1.624;2023-08-12T23:55:18;9.95;;;2.25;;
